sensor_id;sensor_type;location;lat;lon;timestamp;pressure;altitude;pressure_sealevel;temperature;humidity
27864;BME280;15980;51.092;13.916;2022-08-25T00:00:33;99075.75;;;17.26;96.79
27864;BME280;15980;51.092;13.916;2022-08-25T00:05:38;99076.88;;;17.21;96.61
27864;BME280;15980;51.092;13.916;2022-08-25T00:10:41;99065.72;;;17.18;96.92
27864;BME280;15980;51.092;13.916;2022-08-25T00:15:44;99079.97;;;17.16;97.10
27864;BME280;15980;51.092;13.916;2022-08-25T00:20:48;99077.16;;;17.13;97.17
27864;BME280;15980;51.092;13.916;2022-08-25T00:25:51;99070.75;;;17.09;97.14
27864;BME280;15980;51.092;13.916;2022-08-25T00:30:54;99075.13;;;17.10;97.83
27864;BME280;15980;51.092;13.916;2022-08-25T00:35:58;99071.19;;;17.11;98.21
27864;BME280;15980;51.092;13.916;2022-08-25T00:41:01;99075.06;;;17.06;98.44
27864;BME280;15980;51.092;13.916;2022-08-25T00:46:07;99067.50;;;17.03;98.37
27864;BME280;15980;51.092;13.916;2022-08-25T00:51:13;99066.72;;;17.03;98.49
27864;BME280;15980;51.092;13.916;2022-08-25T00:56:18;99066.28;;;17.01;98.62
27864;BME280;15980;51.092;13.916;2022-08-25T01:01:21;99061.50;;;16.98;98.84
27864;BME280;15980;51.092;13.916;2022-08-25T01:06:26;99063.03;;;16.95;98.78
27864;BME280;15980;51.092;13.916;2022-08-25T01:11:29;99060.22;;;16.91;98.68
27864;BME280;15980;51.092;13.916;2022-08-25T01:16:33;99067.72;;;16.91;99.15
27864;BME280;15980;51.092;13.916;2022-08-25T01:21:40;99055.09;;;16.93;99.56
27864;BME280;15980;51.092;13.916;2022-08-25T01:26:42;99057.91;;;16.97;100.00
27864;BME280;15980;51.092;13.916;2022-08-25T01:31:46;99052.84;;;17.03;99.80
27864;BME280;15980;51.092;13.916;2022-08-25T01:36:50;99049.31;;;17.06;99.75
27864;BME280;15980;51.092;13.916;2022-08-25T01:42:03;99050.59;;;17.12;99.63
27864;BME280;15980;51.092;13.916;2022-08-25T01:47:11;99046.28;;;17.14;99.01
27864;BME280;15980;51.092;13.916;2022-08-25T01:52:18;99055.00;;;17.16;98.61
27864;BME280;15980;51.092;13.916;2022-08-25T01:57:22;99040.34;;;17.16;98.55
27864;BME280;15980;51.092;13.916;2022-08-25T02:02:25;99045.84;;;17.12;98.73
27864;BME280;15980;51.092;13.916;2022-08-25T02:07:29;99045.06;;;17.12;98.91
27864;BME280;15980;51.092;13.916;2022-08-25T02:12:33;99051.72;;;17.07;98.91
27864;BME280;15980;51.092;13.916;2022-08-25T02:17:37;99044.25;;;17.11;99.58
27864;BME280;15980;51.092;13.916;2022-08-25T02:22:42;99041.94;;;17.17;99.33
27864;BME280;15980;51.092;13.916;2022-08-25T02:27:45;99048.28;;;17.17;98.90
27864;BME280;15980;51.092;13.916;2022-08-25T02:32:48;99038.03;;;17.21;99.68
27864;BME280;15980;51.092;13.916;2022-08-25T02:37:53;99038.84;;;17.22;99.63
27864;BME280;15980;51.092;13.916;2022-08-25T02:42:55;99030.06;;;17.16;99.38
27864;BME280;15980;51.092;13.916;2022-08-25T02:47:58;99036.72;;;17.12;98.91
27864;BME280;15980;51.092;13.916;2022-08-25T02:53:03;99035.84;;;17.04;99.40
27864;BME280;15980;51.092;13.916;2022-08-25T02:58:05;99029.53;;;17.07;100.00
27864;BME280;15980;51.092;13.916;2022-08-25T03:03:09;99033.63;;;17.17;100.00
27864;BME280;15980;51.092;13.916;2022-08-25T03:08:14;99032.50;;;17.21;99.94
27864;BME280;15980;51.092;13.916;2022-08-25T03:13:17;99027.72;;;17.18;99.60
27864;BME280;15980;51.092;13.916;2022-08-25T03:18:19;99024.59;;;17.23;99.22
27864;BME280;15980;51.092;13.916;2022-08-25T03:23:25;99016.69;;;17.25;98.79
27864;BME280;15980;51.092;13.916;2022-08-25T03:28:28;99011.06;;;17.18;98.30
27864;BME280;15980;51.092;13.916;2022-08-25T03:33:33;99013.28;;;17.06;97.84
27864;BME280;15980;51.092;13.916;2022-08-25T03:38:40;99020.28;;;16.96;98.18
27864;BME280;15980;51.092;13.916;2022-08-25T03:43:43;99016.97;;;16.87;98.33
27864;BME280;15980;51.092;13.916;2022-08-25T03:48:47;99004.97;;;16.79;99.16
27864;BME280;15980;51.092;13.916;2022-08-25T03:53:52;99005.25;;;16.71;99.27
27864;BME280;15980;51.092;13.916;2022-08-25T03:58:55;99002.91;;;16.73;100.00
27864;BME280;15980;51.092;13.916;2022-08-25T04:03:58;99014.56;;;16.85;100.00
27864;BME280;15980;51.092;13.916;2022-08-25T04:09:02;99011.16;;;16.95;99.77
27864;BME280;15980;51.092;13.916;2022-08-25T04:14:05;99007.00;;;17.09;99.68
27864;BME280;15980;51.092;13.916;2022-08-25T04:19:08;98998.03;;;17.22;99.58
27864;BME280;15980;51.092;13.916;2022-08-25T04:24:13;99005.44;;;17.41;99.99
27864;BME280;15980;51.092;13.916;2022-08-25T04:29:18;99006.47;;;17.63;99.47
27864;BME280;15980;51.092;13.916;2022-08-25T04:34:22;98998.38;;;17.81;98.33
27864;BME280;15980;51.092;13.916;2022-08-25T04:39:27;98996.06;;;17.90;97.60
27864;BME280;15980;51.092;13.916;2022-08-25T04:44:30;99000.50;;;17.98;96.92
27864;BME280;15980;51.092;13.916;2022-08-25T04:49:34;99010.97;;;18.15;96.35
27864;BME280;15980;51.092;13.916;2022-08-25T04:54:38;99011.53;;;18.32;95.25
27864;BME280;15980;51.092;13.916;2022-08-25T04:59:41;99011.63;;;18.46;94.67
27864;BME280;15980;51.092;13.916;2022-08-25T05:04:44;99017.28;;;18.60;94.27
27864;BME280;15980;51.092;13.916;2022-08-25T05:09:48;99010.41;;;18.95;94.21
27864;BME280;15980;51.092;13.916;2022-08-25T05:14:51;99016.91;;;19.17;93.55
27864;BME280;15980;51.092;13.916;2022-08-25T05:19:54;99022.97;;;19.43;93.28
27864;BME280;15980;51.092;13.916;2022-08-25T05:24:58;99023.91;;;19.72;92.89
27864;BME280;15980;51.092;13.916;2022-08-25T05:30:01;99020.34;;;19.83;91.96
27864;BME280;15980;51.092;13.916;2022-08-25T05:35:05;99027.91;;;19.89;91.74
27864;BME280;15980;51.092;13.916;2022-08-25T05:40:10;99020.75;;;19.88;91.97
27864;BME280;15980;51.092;13.916;2022-08-25T05:45:13;99018.81;;;19.99;92.92
27864;BME280;15980;51.092;13.916;2022-08-25T05:50:16;99027.19;;;20.10;93.29
27864;BME280;15980;51.092;13.916;2022-08-25T05:55:21;99018.81;;;20.21;92.69
27864;BME280;15980;51.092;13.916;2022-08-25T06:00:23;99021.28;;;20.51;93.24
27864;BME280;15980;51.092;13.916;2022-08-25T06:05:26;99010.88;;;20.87;90.91
27864;BME280;15980;51.092;13.916;2022-08-25T06:10:31;99010.81;;;21.08;89.23
27864;BME280;15980;51.092;13.916;2022-08-25T06:15:34;99010.75;;;21.22;89.34
27864;BME280;15980;51.092;13.916;2022-08-25T06:20:37;99010.00;;;21.25;88.14
27864;BME280;15980;51.092;13.916;2022-08-25T06:25:48;99013.13;;;21.45;88.98
27864;BME280;15980;51.092;13.916;2022-08-25T06:30:57;99007.47;;;21.59;88.79
27864;BME280;15980;51.092;13.916;2022-08-25T06:36:00;98999.44;;;21.69;87.36
27864;BME280;15980;51.092;13.916;2022-08-25T06:41:06;99000.94;;;21.87;87.58
27864;BME280;15980;51.092;13.916;2022-08-25T06:46:12;99000.94;;;22.43;85.99
27864;BME280;15980;51.092;13.916;2022-08-25T06:51:17;99002.41;;;22.62;82.90
27864;BME280;15980;51.092;13.916;2022-08-25T06:56:22;99013.94;;;22.67;83.04
27864;BME280;15980;51.092;13.916;2022-08-25T07:01:25;99001.69;;;22.50;83.38
27864;BME280;15980;51.092;13.916;2022-08-25T07:06:30;99003.88;;;23.14;82.40
27864;BME280;15980;51.092;13.916;2022-08-25T07:11:37;99013.38;;;23.24;80.96
27864;BME280;15980;51.092;13.916;2022-08-25T07:16:41;99003.41;;;23.19;81.18
27864;BME280;15980;51.092;13.916;2022-08-25T07:21:50;99010.31;;;23.11;81.24
27864;BME280;15980;51.092;13.916;2022-08-25T07:26:54;98999.88;;;23.15;82.11
27864;BME280;15980;51.092;13.916;2022-08-25T07:31:57;99001.66;;;23.33;82.75
27864;BME280;15980;51.092;13.916;2022-08-25T07:37:00;98999.28;;;23.65;81.64
27864;BME280;15980;51.092;13.916;2022-08-25T07:42:06;99002.81;;;23.69;81.71
27864;BME280;15980;51.092;13.916;2022-08-25T07:47:09;98998.84;;;23.67;80.11
27864;BME280;15980;51.092;13.916;2022-08-25T07:52:12;98997.97;;;23.73;80.68
27864;BME280;15980;51.092;13.916;2022-08-25T07:57:16;99000.34;;;23.75;79.71
27864;BME280;15980;51.092;13.916;2022-08-25T08:02:19;98992.19;;;23.88;79.17
27864;BME280;15980;51.092;13.916;2022-08-25T08:07:24;98987.28;;;24.19;78.67
27864;BME280;15980;51.092;13.916;2022-08-25T08:12:28;98988.75;;;24.77;76.09
27864;BME280;15980;51.092;13.916;2022-08-25T08:17:31;98990.84;;;25.36;72.21
27864;BME280;15980;51.092;13.916;2022-08-25T08:22:34;98993.88;;;26.17;68.82
27864;BME280;15980;51.092;13.916;2022-08-25T08:27:38;98997.25;;;26.61;67.80
27864;BME280;15980;51.092;13.916;2022-08-25T08:32:43;98984.88;;;27.04;65.48
27864;BME280;15980;51.092;13.916;2022-08-25T08:38:06;98990.75;;;27.38;64.54
27864;BME280;15980;51.092;13.916;2022-08-25T08:43:15;98984.28;;;27.67;62.77
27864;BME280;15980;51.092;13.916;2022-08-25T08:48:32;98979.84;;;27.53;61.89
27864;BME280;15980;51.092;13.916;2022-08-25T08:53:44;98958.13;;;27.66;63.10
27864;BME280;15980;51.092;13.916;2022-08-25T08:58:51;98974.75;;;27.35;62.96
27864;BME280;15980;51.092;13.916;2022-08-25T09:04:01;98965.84;;;27.08;63.73
27864;BME280;15980;51.092;13.916;2022-08-25T09:09:08;98965.41;;;27.09;63.30
27864;BME280;15980;51.092;13.916;2022-08-25T09:14:24;98956.03;;;27.41;61.91
27864;BME280;15980;51.092;13.916;2022-08-25T09:20:07;98956.38;;;27.43;62.26
27864;BME280;15980;51.092;13.916;2022-08-25T09:25:17;98950.56;;;27.63;61.22
27864;BME280;15980;51.092;13.916;2022-08-25T09:30:40;98949.81;;;27.88;60.57
27864;BME280;15980;51.092;13.916;2022-08-25T09:35:46;98938.50;;;28.73;58.79
27864;BME280;15980;51.092;13.916;2022-08-25T09:40:52;98932.47;;;28.50;58.38
27864;BME280;15980;51.092;13.916;2022-08-25T09:45:59;98932.19;;;28.35;58.62
27864;BME280;15980;51.092;13.916;2022-08-25T09:51:14;98924.50;;;28.35;58.93
27864;BME280;15980;51.092;13.916;2022-08-25T09:56:19;98932.31;;;29.22;56.42
27864;BME280;15980;51.092;13.916;2022-08-25T10:01:24;98921.44;;;29.43;53.96
27864;BME280;15980;51.092;13.916;2022-08-25T10:06:33;98916.91;;;29.14;53.88
27864;BME280;15980;51.092;13.916;2022-08-25T10:11:40;98903.13;;;29.25;54.39
27864;BME280;15980;51.092;13.916;2022-08-25T10:16:46;98902.91;;;29.11;55.53
27864;BME280;15980;51.092;13.916;2022-08-25T10:22:03;98897.03;;;29.27;54.99
27864;BME280;15980;51.092;13.916;2022-08-25T10:27:15;98883.41;;;29.34;54.82
27864;BME280;15980;51.092;13.916;2022-08-25T10:32:24;98894.19;;;29.27;54.92
27864;BME280;15980;51.092;13.916;2022-08-25T10:37:39;98885.94;;;28.89;55.02
27864;BME280;15980;51.092;13.916;2022-08-25T10:42:55;98867.16;;;28.60;55.92
27864;BME280;15980;51.092;13.916;2022-08-25T10:48:27;98870.94;;;28.79;56.79
27864;BME280;15980;51.092;13.916;2022-08-25T10:53:41;98864.47;;;28.57;55.85
27864;BME280;15980;51.092;13.916;2022-08-25T10:59:14;98857.13;;;28.59;57.72
27864;BME280;15980;51.092;13.916;2022-08-25T11:04:25;98846.72;;;28.69;55.65
27864;BME280;15980;51.092;13.916;2022-08-25T11:09:33;98849.53;;;28.69;55.58
27864;BME280;15980;51.092;13.916;2022-08-25T11:14:45;98838.66;;;28.45;56.86
27864;BME280;15980;51.092;13.916;2022-08-25T11:19:54;98848.31;;;28.57;55.79
27864;BME280;15980;51.092;13.916;2022-08-25T11:25:04;98835.69;;;29.05;55.62
27864;BME280;15980;51.092;13.916;2022-08-25T11:30:12;98832.72;;;29.09;55.39
27864;BME280;15980;51.092;13.916;2022-08-25T11:35:24;98832.28;;;28.89;54.78
27864;BME280;15980;51.092;13.916;2022-08-25T11:40:39;98821.91;;;28.16;56.47
27864;BME280;15980;51.092;13.916;2022-08-25T11:45:53;98808.69;;;28.39;55.86
27864;BME280;15980;51.092;13.916;2022-08-25T11:51:02;98821.03;;;28.76;54.65
27864;BME280;15980;51.092;13.916;2022-08-25T11:56:08;98808.16;;;28.75;54.02
27864;BME280;15980;51.092;13.916;2022-08-25T12:07:25;98806.91;;;28.98;54.15
27864;BME280;15980;51.092;13.916;2022-08-25T12:12:30;98792.06;;;29.06;54.11
27864;BME280;15980;51.092;13.916;2022-08-25T12:17:37;98803.47;;;29.34;53.58
27864;BME280;15980;51.092;13.916;2022-08-25T12:22:55;98791.28;;;29.95;50.51
27864;BME280;15980;51.092;13.916;2022-08-25T12:28:04;98776.16;;;29.89;50.53
27864;BME280;15980;51.092;13.916;2022-08-25T12:33:14;98771.91;;;29.85;50.65
27864;BME280;15980;51.092;13.916;2022-08-25T12:38:30;98763.88;;;29.65;51.49
27864;BME280;15980;51.092;13.916;2022-08-25T12:43:36;98767.69;;;29.40;51.42
27864;BME280;15980;51.092;13.916;2022-08-25T12:48:52;98774.91;;;29.32;51.68
27864;BME280;15980;51.092;13.916;2022-08-25T12:54:11;98760.25;;;29.64;52.13
27864;BME280;15980;51.092;13.916;2022-08-25T12:59:18;98756.19;;;29.75;50.04
27864;BME280;15980;51.092;13.916;2022-08-25T13:04:45;98767.34;;;29.29;50.42
27864;BME280;15980;51.092;13.916;2022-08-25T13:10:19;98762.16;;;28.96;51.96
27864;BME280;15980;51.092;13.916;2022-08-25T13:15:33;98757.38;;;29.06;51.75
27864;BME280;15980;51.092;13.916;2022-08-25T13:20:38;98737.34;;;29.22;50.51
27864;BME280;15980;51.092;13.916;2022-08-25T13:25:48;98747.28;;;29.05;49.96
27864;BME280;15980;51.092;13.916;2022-08-25T13:31:00;98733.91;;;29.36;50.53
27864;BME280;15980;51.092;13.916;2022-08-25T13:36:03;98726.81;;;29.81;49.69
27864;BME280;15980;51.092;13.916;2022-08-25T13:41:25;98723.81;;;29.66;50.80
27864;BME280;15980;51.092;13.916;2022-08-25T13:46:28;98729.06;;;28.97;52.93
27864;BME280;15980;51.092;13.916;2022-08-25T13:51:32;98727.78;;;28.89;53.64
27864;BME280;15980;51.092;13.916;2022-08-25T13:56:39;98722.16;;;28.98;52.41
27864;BME280;15980;51.092;13.916;2022-08-25T14:01:44;98720.31;;;28.73;53.29
27864;BME280;15980;51.092;13.916;2022-08-25T14:07:04;98714.78;;;28.69;53.44
27864;BME280;15980;51.092;13.916;2022-08-25T14:12:25;98714.63;;;28.95;52.69
27864;BME280;15980;51.092;13.916;2022-08-25T14:17:34;98710.13;;;29.06;53.15
27864;BME280;15980;51.092;13.916;2022-08-25T14:22:39;98714.94;;;28.97;52.11
27864;BME280;15980;51.092;13.916;2022-08-25T14:27:43;98706.06;;;29.07;52.92
27864;BME280;15980;51.092;13.916;2022-08-25T14:33:07;98700.13;;;29.24;50.91
27864;BME280;15980;51.092;13.916;2022-08-25T14:38:10;98698.41;;;29.26;52.35
27864;BME280;15980;51.092;13.916;2022-08-25T14:43:14;98694.31;;;29.18;51.73
27864;BME280;15980;51.092;13.916;2022-08-25T14:48:22;98681.94;;;28.85;53.69
27864;BME280;15980;51.092;13.916;2022-08-25T14:53:26;98682.28;;;28.96;53.58
27864;BME280;15980;51.092;13.916;2022-08-25T14:58:31;98686.75;;;28.75;53.51
27864;BME280;15980;51.092;13.916;2022-08-25T15:03:36;98669.78;;;29.06;53.47
27864;BME280;15980;51.092;13.916;2022-08-25T15:08:39;98665.47;;;29.32;52.61
27864;BME280;15980;51.092;13.916;2022-08-25T15:14:01;98677.63;;;28.71;55.17
27864;BME280;15980;51.092;13.916;2022-08-25T15:19:05;98675.41;;;28.00;57.64
27864;BME280;15980;51.092;13.916;2022-08-25T15:24:09;98668.00;;;28.15;57.33
27864;BME280;15980;51.092;13.916;2022-08-25T15:29:13;98666.63;;;28.42;57.60
27864;BME280;15980;51.092;13.916;2022-08-25T15:34:16;98661.38;;;28.84;56.57
27864;BME280;15980;51.092;13.916;2022-08-25T15:39:19;98665.13;;;28.50;57.40
27864;BME280;15980;51.092;13.916;2022-08-25T15:44:24;98666.38;;;28.05;58.74
27864;BME280;15980;51.092;13.916;2022-08-25T15:49:29;98660.94;;;27.89;58.84
27864;BME280;15980;51.092;13.916;2022-08-25T15:54:32;98665.19;;;27.94;58.62
27864;BME280;15980;51.092;13.916;2022-08-25T15:59:36;98663.94;;;27.95;59.14
27864;BME280;15980;51.092;13.916;2022-08-25T16:04:40;98640.34;;;28.23;59.52
27864;BME280;15980;51.092;13.916;2022-08-25T16:09:43;98644.28;;;28.26;58.58
27864;BME280;15980;51.092;13.916;2022-08-25T16:14:48;98645.09;;;28.13;59.10
27864;BME280;15980;51.092;13.916;2022-08-25T16:19:51;98640.66;;;27.81;59.39
27864;BME280;15980;51.092;13.916;2022-08-25T16:24:53;98643.34;;;27.50;59.89
27864;BME280;15980;51.092;13.916;2022-08-25T16:29:58;98636.13;;;27.49;60.91
27864;BME280;15980;51.092;13.916;2022-08-25T16:35:01;98628.84;;;27.27;62.11
27864;BME280;15980;51.092;13.916;2022-08-25T16:40:06;98627.72;;;27.24;61.17
27864;BME280;15980;51.092;13.916;2022-08-25T16:45:12;98626.31;;;27.07;61.51
27864;BME280;15980;51.092;13.916;2022-08-25T16:50:15;98631.41;;;26.99;61.67
27864;BME280;15980;51.092;13.916;2022-08-25T16:55:18;98623.72;;;26.74;63.59
27864;BME280;15980;51.092;13.916;2022-08-25T17:00:24;98634.97;;;26.62;63.60
27864;BME280;15980;51.092;13.916;2022-08-25T17:05:28;98640.34;;;26.43;63.48
27864;BME280;15980;51.092;13.916;2022-08-25T17:10:34;98630.13;;;26.37;64.12
27864;BME280;15980;51.092;13.916;2022-08-25T17:15:43;98640.66;;;26.33;64.82
27864;BME280;15980;51.092;13.916;2022-08-25T17:20:47;98642.44;;;26.26;65.11
27864;BME280;15980;51.092;13.916;2022-08-25T17:25:49;98645.00;;;26.08;66.83
27864;BME280;15980;51.092;13.916;2022-08-25T17:30:54;98643.13;;;25.89;67.27
27864;BME280;15980;51.092;13.916;2022-08-25T17:35:57;98640.22;;;25.63;68.20
27864;BME280;15980;51.092;13.916;2022-08-25T17:41:02;98656.84;;;25.42;69.33
27864;BME280;15980;51.092;13.916;2022-08-25T17:46:09;98658.53;;;25.23;70.29
27864;BME280;15980;51.092;13.916;2022-08-25T17:51:12;98652.88;;;24.90;72.46
27864;BME280;15980;51.092;13.916;2022-08-25T17:56:18;98671.13;;;24.82;72.92
27864;BME280;15980;51.092;13.916;2022-08-25T18:01:25;98663.19;;;24.61;73.62
27864;BME280;15980;51.092;13.916;2022-08-25T18:06:28;98660.00;;;24.42;73.82
27864;BME280;15980;51.092;13.916;2022-08-25T18:11:31;98662.28;;;24.28;74.48
27864;BME280;15980;51.092;13.916;2022-08-25T18:16:36;98661.69;;;24.17;74.95
27864;BME280;15980;51.092;13.916;2022-08-25T18:21:39;98670.41;;;24.02;75.87
27864;BME280;15980;51.092;13.916;2022-08-25T18:26:41;98667.47;;;23.90;76.60
27864;BME280;15980;51.092;13.916;2022-08-25T18:31:46;98663.28;;;23.78;77.02
27864;BME280;15980;51.092;13.916;2022-08-25T18:36:49;98671.53;;;23.65;77.64
27864;BME280;15980;51.092;13.916;2022-08-25T18:41:52;98668.53;;;23.53;78.83
27864;BME280;15980;51.092;13.916;2022-08-25T18:46:56;98671.53;;;23.42;79.16
27864;BME280;15980;51.092;13.916;2022-08-25T18:51:59;98671.69;;;23.31;79.81
27864;BME280;15980;51.092;13.916;2022-08-25T18:57:02;98671.47;;;23.22;80.11
27864;BME280;15980;51.092;13.916;2022-08-25T19:02:07;98668.84;;;23.11;80.67
27864;BME280;15980;51.092;13.916;2022-08-25T19:07:10;98674.63;;;23.01;81.16
27864;BME280;15980;51.092;13.916;2022-08-25T19:12:14;98678.00;;;22.88;82.04
27864;BME280;15980;51.092;13.916;2022-08-25T19:17:18;98672.88;;;22.83;82.47
27864;BME280;15980;51.092;13.916;2022-08-25T19:22:21;98678.97;;;22.75;83.28
27864;BME280;15980;51.092;13.916;2022-08-25T19:27:39;98670.28;;;22.69;83.69
27864;BME280;15980;51.092;13.916;2022-08-25T19:32:45;98671.53;;;22.65;84.46
27864;BME280;15980;51.092;13.916;2022-08-25T19:37:48;98672.88;;;22.56;84.13
27864;BME280;15980;51.092;13.916;2022-08-25T19:42:52;98674.19;;;22.45;84.53
27864;BME280;15980;51.092;13.916;2022-08-25T19:47:56;98674.72;;;22.36;84.66
27864;BME280;15980;51.092;13.916;2022-08-25T19:52:59;98676.06;;;22.24;84.96
27864;BME280;15980;51.092;13.916;2022-08-25T19:58:02;98680.59;;;22.15;85.42
27864;BME280;15980;51.092;13.916;2022-08-25T20:03:07;98674.66;;;22.09;86.19
27864;BME280;15980;51.092;13.916;2022-08-25T20:08:10;98667.94;;;22.03;86.35
27864;BME280;15980;51.092;13.916;2022-08-25T20:13:13;98662.41;;;21.96;86.91
27864;BME280;15980;51.092;13.916;2022-08-25T20:18:17;98658.88;;;21.92;87.32
27864;BME280;15980;51.092;13.916;2022-08-25T20:23:19;98660.09;;;21.91;87.48
27864;BME280;15980;51.092;13.916;2022-08-25T20:28:40;98670.47;;;21.90;87.74
27864;BME280;15980;51.092;13.916;2022-08-25T20:33:44;98668.03;;;21.92;87.75
27864;BME280;15980;51.092;13.916;2022-08-25T20:38:47;98663.34;;;21.86;88.18
27864;BME280;15980;51.092;13.916;2022-08-25T20:43:49;98664.63;;;21.78;88.70
27864;BME280;15980;51.092;13.916;2022-08-25T20:48:53;98661.13;;;21.70;89.02
27864;BME280;15980;51.092;13.916;2022-08-25T20:53:58;98661.97;;;21.63;89.05
27864;BME280;15980;51.092;13.916;2022-08-25T20:59:01;98668.44;;;21.57;89.70
27864;BME280;15980;51.092;13.916;2022-08-25T21:04:08;98667.66;;;21.53;91.49
27864;BME280;15980;51.092;13.916;2022-08-25T21:09:13;98653.34;;;21.51;91.19
27864;BME280;15980;51.092;13.916;2022-08-25T21:14:17;98658.13;;;21.50;91.89
27864;BME280;15980;51.092;13.916;2022-08-25T21:19:24;98659.75;;;21.48;91.88
27864;BME280;15980;51.092;13.916;2022-08-25T21:24:27;98657.00;;;21.44;92.25
27864;BME280;15980;51.092;13.916;2022-08-25T21:29:30;98655.03;;;21.41;92.60
27864;BME280;15980;51.092;13.916;2022-08-25T21:34:34;98655.03;;;21.41;92.66
27864;BME280;15980;51.092;13.916;2022-08-25T21:39:37;98660.66;;;21.38;92.54
27864;BME280;15980;51.092;13.916;2022-08-25T21:44:40;98657.91;;;21.34;92.92
27864;BME280;15980;51.092;13.916;2022-08-25T21:49:44;98660.28;;;21.36;93.58
27864;BME280;15980;51.092;13.916;2022-08-25T21:54:47;98652.66;;;21.40;93.74
27864;BME280;15980;51.092;13.916;2022-08-25T21:59:50;98649.84;;;21.43;93.45
27864;BME280;15980;51.092;13.916;2022-08-25T22:04:54;98650.25;;;21.42;93.27
27864;BME280;15980;51.092;13.916;2022-08-25T22:09:58;98641.50;;;21.40;93.52
27864;BME280;15980;51.092;13.916;2022-08-25T22:15:01;98639.56;;;21.33;93.11
27864;BME280;15980;51.092;13.916;2022-08-25T22:20:06;98633.28;;;21.25;93.59
27864;BME280;15980;51.092;13.916;2022-08-25T22:25:09;98625.78;;;21.12;94.75
27864;BME280;15980;51.092;13.916;2022-08-25T22:30:13;98622.25;;;21.04;95.40
27864;BME280;15980;51.092;13.916;2022-08-25T22:35:18;98617.09;;;21.02;95.19
27864;BME280;15980;51.092;13.916;2022-08-25T22:40:21;98617.53;;;20.97;95.04
27864;BME280;15980;51.092;13.916;2022-08-25T22:45:24;98611.59;;;20.92;95.29
27864;BME280;15980;51.092;13.916;2022-08-25T22:50:28;98614.09;;;20.83;95.73
27864;BME280;15980;51.092;13.916;2022-08-25T22:55:31;98603.84;;;20.65;97.90
27864;BME280;15980;51.092;13.916;2022-08-25T23:00:37;98605.44;;;20.63;96.47
27864;BME280;15980;51.092;13.916;2022-08-25T23:05:41;98603.53;;;20.53;96.15
27864;BME280;15980;51.092;13.916;2022-08-25T23:10:48;98598.47;;;20.41;96.28
27864;BME280;15980;51.092;13.916;2022-08-25T23:15:51;98596.06;;;20.32;96.19
27864;BME280;15980;51.092;13.916;2022-08-25T23:20:55;98597.31;;;20.24;96.08
27864;BME280;15980;51.092;13.916;2022-08-25T23:26:16;98590.63;;;20.14;95.94
27864;BME280;15980;51.092;13.916;2022-08-25T23:31:20;98594.25;;;20.07;96.17
27864;BME280;15980;51.092;13.916;2022-08-25T23:36:25;98579.53;;;20.03;96.42
27864;BME280;15980;51.092;13.916;2022-08-25T23:41:27;98574.00;;;19.93;96.23
27864;BME280;15980;51.092;13.916;2022-08-25T23:46:30;98574.03;;;19.89;96.32
27864;BME280;15980;51.092;13.916;2022-08-25T23:51:36;98570.06;;;19.83;96.92
27864;BME280;15980;51.092;13.916;2022-08-25T23:56:39;98570.09;;;19.80;96.99
